createdAt,value
2022-10-11T00:00:32.946Z,32.06
2022-10-11T00:02:59.324Z,32.01
2022-10-11T00:05:25.654Z,32.05
2022-10-11T00:07:52.003Z,32.00
2022-10-11T00:10:18.366Z,32.14
2022-10-11T00:12:44.730Z,32.51
2022-10-11T00:15:11.075Z,32.21
2022-10-11T00:17:37.506Z,32.10
2022-10-11T00:20:03.863Z,32.04
2022-10-11T00:22:30.206Z,32.08
2022-10-11T00:24:56.589Z,32.04
2022-10-11T00:27:22.926Z,31.99
2022-10-11T00:29:49.292Z,32.06
2022-10-11T00:32:15.784Z,32.01
2022-10-11T00:34:42.132Z,31.96
2022-10-11T00:37:08.488Z,31.99
2022-10-11T00:39:34.954Z,31.94
2022-10-11T00:42:01.319Z,31.96
2022-10-11T00:44:27.666Z,31.94
2022-10-11T00:46:55.959Z,32.10
2022-10-11T00:49:22.512Z,32.39
2022-10-11T00:51:48.875Z,32.19
2022-10-11T00:54:15.234Z,32.13
2022-10-11T00:56:41.592Z,32.08
2022-10-11T00:59:07.964Z,32.00
2022-10-11T01:01:34.577Z,32.02
2022-10-11T01:04:01.012Z,32.02
2022-10-11T01:06:27.374Z,31.99
2022-10-11T01:08:53.764Z,32.06
2022-10-11T01:11:20.103Z,32.10
2022-10-11T01:13:46.471Z,32.08
2022-10-11T01:16:12.874Z,32.07
2022-10-11T01:18:39.211Z,32.04
2022-10-11T01:21:05.560Z,32.01
2022-10-11T01:23:32.028Z,32.18
2022-10-11T01:25:58.386Z,32.38
2022-10-11T01:28:24.815Z,32.18
2022-10-11T01:30:51.310Z,32.09
2022-10-11T01:33:17.635Z,32.02
2022-10-11T01:35:43.979Z,32.04
2022-10-11T01:38:10.422Z,31.96
2022-10-11T01:40:36.785Z,31.98
2022-10-11T01:43:03.134Z,32.00
2022-10-11T01:45:29.564Z,32.02
2022-10-11T01:47:55.926Z,32.01
2022-10-11T01:50:22.281Z,32.01
2022-10-11T01:52:48.662Z,32.00
2022-10-11T01:55:14.998Z,31.99
2022-10-11T01:57:41.331Z,31.99
2022-10-11T02:00:07.698Z,32.20
2022-10-11T02:02:34.101Z,32.33
2022-10-11T02:05:00.470Z,32.17
2022-10-11T02:07:26.905Z,32.12
2022-10-11T02:09:55.544Z,32.09
2022-10-11T02:12:21.939Z,32.07
2022-10-11T02:14:48.296Z,32.06
2022-10-11T02:17:14.648Z,32.08
2022-10-11T02:19:40.985Z,32.06
2022-10-11T02:22:07.380Z,32.03
2022-10-11T02:24:33.738Z,32.02
2022-10-11T02:27:00.080Z,32.02
2022-10-11T02:29:26.476Z,31.99
2022-10-11T02:31:52.825Z,32.02
2022-10-11T02:34:19.200Z,31.95
2022-10-11T02:36:45.658Z,32.17
2022-10-11T02:39:12.005Z,32.30
2022-10-11T02:41:38.434Z,32.13
2022-10-11T02:44:04.879Z,32.06
2022-10-11T02:46:31.207Z,32.01
2022-10-11T02:48:57.548Z,31.97
2022-10-11T02:51:23.918Z,31.99
2022-10-11T02:53:50.273Z,32.01
2022-10-11T02:56:16.617Z,31.98
2022-10-11T02:58:43.069Z,31.99
2022-10-11T03:01:09.437Z,32.01
2022-10-11T03:03:35.818Z,32.00
2022-10-11T03:06:02.460Z,32.07
2022-10-11T03:08:29.060Z,32.03
2022-10-11T03:10:55.408Z,32.04
2022-10-11T03:13:21.844Z,32.44
2022-10-11T03:15:49.330Z,32.25
2022-10-11T03:18:15.733Z,32.21
2022-10-11T03:20:42.208Z,32.13
2022-10-11T03:23:08.558Z,32.11
2022-10-11T03:25:34.894Z,32.08
2022-10-11T03:28:01.286Z,32.08
2022-10-11T03:30:27.631Z,32.09
2022-10-11T03:32:54.021Z,32.10
2022-10-11T03:35:20.460Z,32.10
2022-10-11T03:37:46.866Z,32.11
2022-10-11T03:40:13.233Z,32.09
2022-10-11T03:42:39.619Z,32.07
2022-10-11T03:45:05.963Z,32.20
2022-10-11T03:47:32.296Z,32.52
2022-10-11T03:49:58.721Z,32.28
2022-10-11T03:52:25.077Z,32.20
2022-10-11T03:54:51.430Z,32.16
2022-10-11T03:57:17.809Z,32.15
2022-10-11T03:59:44.150Z,32.12
2022-10-11T04:02:10.577Z,32.11
2022-10-11T04:04:36.986Z,32.07
2022-10-11T04:07:03.365Z,31.99
2022-10-11T04:09:29.710Z,31.97
2022-10-11T04:11:56.073Z,31.97
2022-10-11T04:14:22.425Z,31.88
2022-10-11T04:16:48.771Z,31.86
2022-10-11T04:19:15.268Z,32.04
2022-10-11T04:21:41.648Z,32.12
2022-10-11T04:24:07.971Z,31.92
2022-10-11T04:26:34.336Z,31.89
2022-10-11T04:29:00.716Z,31.82
2022-10-11T04:31:27.102Z,31.79
2022-10-11T04:33:53.557Z,31.74
2022-10-11T04:36:19.896Z,31.76
2022-10-11T04:38:46.250Z,31.75
2022-10-11T04:41:12.609Z,31.72
2022-10-11T04:43:38.965Z,31.68
2022-10-11T04:46:05.771Z,31.68
2022-10-11T04:48:32.554Z,31.67
2022-10-11T04:50:58.902Z,31.92
2022-10-11T04:53:25.264Z,31.90
2022-10-11T04:55:51.687Z,31.71
2022-10-11T04:58:18.048Z,31.71
2022-10-11T05:00:44.415Z,31.64
2022-10-11T05:03:10.854Z,31.61
2022-10-11T05:05:37.198Z,31.57
2022-10-11T05:08:03.529Z,31.55
2022-10-11T05:10:30.023Z,31.52
2022-10-11T05:12:56.362Z,31.47
2022-10-11T05:15:22.752Z,31.48
2022-10-11T05:17:49.115Z,31.47
2022-10-11T05:20:15.482Z,31.45
2022-10-11T05:22:41.828Z,31.52
2022-10-11T05:25:08.287Z,31.74
2022-10-11T05:27:34.648Z,31.50
2022-10-11T05:30:01.061Z,31.46
2022-10-11T05:32:28.106Z,31.37
2022-10-11T05:34:54.633Z,31.34
2022-10-11T05:37:21.100Z,31.32
2022-10-11T05:39:47.486Z,31.33
2022-10-11T05:42:13.863Z,31.28
2022-10-11T05:44:40.217Z,31.25
2022-10-11T05:47:06.664Z,31.25
2022-10-11T05:49:33.060Z,31.26
2022-10-11T05:51:59.439Z,31.31
2022-10-11T05:54:25.999Z,31.70
2022-10-11T05:56:52.339Z,31.47
2022-10-11T05:59:18.680Z,31.28
2022-10-11T06:01:45.162Z,31.19
2022-10-11T06:04:11.579Z,31.10
2022-10-11T06:06:37.944Z,31.02
2022-10-11T06:09:04.336Z,31.02
2022-10-11T06:11:30.781Z,30.97
2022-10-11T06:13:57.126Z,30.92
2022-10-11T06:16:23.552Z,30.86
2022-10-11T06:18:49.905Z,30.82
2022-10-11T06:21:16.251Z,31.01
2022-10-11T06:23:42.608Z,31.05
2022-10-11T06:26:09.809Z,30.88
2022-10-11T06:28:36.472Z,30.79
2022-10-11T06:31:02.946Z,30.73
2022-10-11T06:33:29.291Z,30.71
2022-10-11T06:35:55.671Z,30.68
2022-10-11T06:38:22.068Z,30.65
2022-10-11T06:40:48.474Z,30.63
2022-10-11T06:43:14.844Z,30.62
2022-10-11T06:45:41.235Z,30.57
2022-10-11T06:48:07.577Z,30.71
2022-10-11T06:50:58.016Z,30.85
2022-10-11T06:53:20.394Z,30.67
2022-10-11T06:55:46.742Z,30.61
2022-10-11T06:58:13.148Z,30.56
2022-10-11T07:00:39.639Z,30.53
2022-10-11T07:03:06.016Z,30.50
2022-10-11T07:05:32.356Z,30.49
2022-10-11T07:08:00.180Z,30.47
2022-10-11T07:10:26.566Z,30.44
2022-10-11T07:12:52.948Z,30.44
2022-10-11T07:15:19.403Z,30.53
2022-10-11T07:17:45.813Z,30.75
2022-10-11T07:20:12.194Z,30.52
2022-10-11T07:22:38.645Z,30.47
2022-10-11T07:25:05.035Z,30.43
2022-10-11T07:27:31.393Z,30.39
2022-10-11T07:29:57.953Z,30.41
2022-10-11T07:32:24.372Z,30.41
2022-10-11T07:34:50.725Z,30.35
2022-10-11T07:37:17.118Z,30.35
2022-10-11T07:39:43.549Z,30.36
2022-10-11T07:42:09.959Z,30.36
2022-10-11T07:44:36.425Z,30.62
2022-10-11T07:47:03.625Z,30.58
2022-10-11T07:49:32.161Z,30.47
2022-10-11T07:51:58.647Z,30.00
2022-10-11T07:54:25.071Z,29.27
2022-10-11T07:56:51.434Z,29.24
2022-10-11T07:59:17.816Z,29.24
2022-10-11T08:01:44.292Z,29.25
2022-10-11T08:04:10.785Z,29.28
2022-10-11T08:06:37.164Z,29.27
2022-10-11T08:09:03.577Z,29.29
2022-10-11T08:11:29.931Z,29.50
2022-10-11T08:13:56.907Z,29.63
2022-10-11T08:16:23.298Z,29.29
2022-10-11T08:18:49.643Z,29.33
2022-10-11T08:21:16.089Z,29.32
2022-10-11T08:23:42.491Z,29.33
2022-10-11T08:26:09.097Z,29.35
2022-10-11T08:28:35.938Z,29.33
2022-10-11T08:31:02.370Z,29.32
2022-10-11T08:33:28.732Z,29.33
2022-10-11T08:35:55.215Z,29.34
2022-10-11T08:38:21.598Z,29.44
2022-10-11T08:40:48.205Z,29.94
2022-10-11T08:43:14.730Z,29.50
2022-10-11T08:45:41.123Z,29.40
2022-10-11T08:48:07.498Z,29.40
2022-10-11T08:50:34.136Z,29.42
2022-10-11T08:53:00.654Z,29.42
2022-10-11T08:55:27.036Z,29.44
2022-10-11T08:57:53.460Z,29.45
2022-10-11T09:00:19.891Z,29.48
2022-10-11T09:03:06.991Z,29.49
2022-10-11T09:05:32.767Z,29.49
2022-10-11T09:07:59.192Z,29.92
2022-10-11T09:10:25.538Z,29.66
2022-10-11T09:12:51.914Z,29.53
2022-10-11T09:15:18.299Z,29.50
2022-10-11T09:17:44.667Z,29.48
2022-10-11T09:20:11.059Z,29.50
2022-10-11T09:22:37.427Z,29.50
2022-10-11T09:25:04.005Z,29.51
2022-10-11T09:27:50.385Z,29.53
2022-10-11T09:30:16.796Z,29.51
2022-10-11T09:32:43.227Z,29.54
2022-10-11T09:35:09.580Z,29.64
2022-10-11T09:37:36.018Z,30.06
2022-10-11T09:40:02.513Z,29.64
2022-10-11T09:42:28.855Z,29.58
2022-10-11T09:44:55.270Z,29.56
2022-10-11T09:47:21.756Z,29.53
2022-10-11T09:49:48.144Z,29.56
2022-10-11T09:52:14.545Z,29.57
2022-10-11T09:54:40.927Z,29.60
2022-10-11T09:57:07.283Z,29.60
2022-10-11T09:59:33.687Z,29.62
2022-10-11T10:02:00.385Z,29.61
2022-10-11T10:04:26.893Z,29.85
2022-10-11T10:06:53.358Z,29.86
2022-10-11T10:09:19.890Z,29.67
2022-10-11T10:11:46.638Z,29.63
2022-10-11T10:14:13.074Z,29.64
2022-10-11T10:16:39.488Z,29.62
2022-10-11T10:19:05.837Z,29.64
2022-10-11T10:21:32.225Z,29.64
2022-10-11T10:23:59.660Z,29.64
2022-10-11T10:26:26.016Z,29.64
2022-10-11T10:28:52.429Z,29.67
2022-10-11T10:31:18.892Z,29.70
2022-10-11T10:33:45.263Z,30.04
2022-10-11T10:36:11.648Z,29.89
2022-10-11T10:38:38.036Z,29.69
2022-10-11T10:41:04.437Z,29.70
2022-10-11T10:43:30.800Z,29.68
2022-10-11T10:45:57.221Z,29.68
2022-10-11T10:48:23.578Z,29.69
2022-10-11T10:50:49.954Z,29.70
2022-10-11T10:53:16.338Z,29.67
2022-10-11T10:55:42.687Z,29.70
2022-10-11T10:58:09.066Z,29.70
2022-10-11T11:00:35.482Z,29.71
2022-10-11T11:03:01.885Z,30.07
2022-10-11T11:05:28.330Z,29.88
2022-10-11T11:07:54.952Z,29.71
2022-10-11T11:10:21.346Z,29.73
2022-10-11T11:12:50.529Z,29.72
2022-10-11T11:15:18.327Z,29.74
2022-10-11T11:17:45.974Z,29.68
2022-10-11T11:20:12.321Z,29.74
2022-10-11T11:22:38.800Z,29.73
2022-10-11T11:25:05.150Z,29.74
2022-10-11T11:27:31.531Z,29.74
2022-10-11T11:29:58.059Z,29.77
2022-10-11T11:32:24.423Z,30.20
2022-10-11T11:34:50.781Z,29.91
2022-10-11T11:37:17.181Z,29.78
2022-10-11T11:39:43.795Z,29.76
2022-10-11T11:42:10.235Z,29.76
2022-10-11T11:44:36.735Z,29.77
2022-10-11T11:47:03.085Z,29.77
2022-10-11T11:49:29.758Z,29.78
2022-10-11T11:51:56.244Z,29.78
2022-10-11T11:54:22.598Z,29.82
2022-10-11T11:56:48.935Z,29.80
2022-10-11T11:59:15.321Z,29.83
2022-10-11T12:01:41.771Z,30.29
2022-10-11T12:04:08.205Z,29.90
2022-10-11T12:06:35.950Z,29.82
2022-10-11T12:09:04.334Z,29.79
2022-10-11T12:11:35.376Z,29.78
2022-10-11T12:14:01.980Z,29.75
2022-10-11T12:16:28.341Z,29.76
2022-10-11T12:18:54.707Z,29.80
2022-10-11T12:21:21.219Z,29.77
2022-10-11T12:23:47.579Z,29.78
2022-10-11T12:26:13.995Z,29.82
2022-10-11T12:28:40.410Z,29.95
2022-10-11T12:31:06.917Z,30.23
2022-10-11T12:33:33.484Z,29.87
2022-10-11T12:36:02.651Z,29.79
2022-10-11T12:38:32.215Z,29.80
2022-10-11T12:40:58.607Z,29.79
2022-10-11T12:43:24.997Z,29.81
2022-10-11T12:45:51.453Z,29.81
2022-10-11T12:48:17.896Z,29.80
2022-10-11T12:50:44.275Z,29.80
2022-10-11T12:53:10.652Z,29.82
2022-10-11T12:55:36.996Z,29.84
2022-10-11T12:58:03.363Z,30.11
2022-10-11T13:00:29.846Z,30.06
2022-10-11T13:02:56.289Z,29.86
2022-10-11T13:05:22.762Z,29.81
2022-10-11T13:07:49.142Z,29.81
2022-10-11T13:10:15.509Z,29.83
2022-10-11T13:12:41.953Z,29.82
2022-10-11T13:15:08.505Z,29.85
2022-10-11T13:17:38.449Z,29.84
2022-10-11T13:20:05.224Z,29.84
2022-10-11T13:22:31.585Z,29.86
2022-10-11T13:24:57.952Z,29.85
2022-10-11T13:27:24.384Z,30.29
2022-10-11T13:29:52.093Z,30.00
2022-10-11T13:32:18.437Z,29.86
2022-10-11T13:34:44.931Z,29.80
2022-10-11T13:37:11.305Z,29.82
2022-10-11T13:39:37.725Z,29.82
2022-10-11T13:42:04.140Z,29.82
2022-10-11T13:44:30.515Z,29.81
2022-10-11T13:46:56.917Z,29.74
2022-10-11T13:49:23.376Z,29.81
2022-10-11T13:51:49.763Z,29.81
2022-10-11T13:54:16.196Z,29.83
2022-10-11T13:56:45.508Z,30.23
2022-10-11T13:59:11.853Z,30.01
2022-10-11T14:01:38.260Z,29.86
2022-10-11T14:04:04.837Z,29.86
2022-10-11T14:06:31.234Z,29.87
2022-10-11T14:08:57.668Z,29.87
2022-10-11T14:11:24.049Z,29.86
2022-10-11T14:13:50.396Z,29.86
2022-10-11T14:16:16.747Z,29.86
2022-10-11T14:18:43.127Z,29.87
2022-10-11T14:21:09.504Z,29.87
2022-10-11T14:23:35.935Z,29.87
2022-10-11T14:26:02.535Z,30.28
2022-10-11T14:28:29.178Z,30.02
2022-10-11T14:30:55.553Z,29.87
2022-10-11T14:33:22.074Z,29.86
2022-10-11T14:35:48.416Z,29.84
2022-10-11T14:38:14.768Z,29.84
2022-10-11T14:40:41.183Z,29.82
2022-10-11T14:43:07.743Z,29.81
2022-10-11T14:45:34.229Z,29.79
2022-10-11T14:48:00.714Z,29.83
2022-10-11T14:50:27.065Z,29.80
2022-10-11T14:52:53.424Z,29.76
2022-10-11T14:55:19.995Z,30.17
2022-10-11T14:57:46.346Z,29.95
2022-10-11T15:00:12.703Z,29.78
2022-10-11T15:02:39.125Z,29.78
2022-10-11T15:05:05.488Z,29.73
2022-10-11T15:07:31.823Z,29.75
2022-10-11T15:09:58.336Z,29.73
2022-10-11T15:12:24.669Z,29.72
2022-10-11T15:14:51.030Z,29.70
2022-10-11T15:17:17.465Z,29.72
2022-10-11T15:19:44.035Z,29.67
2022-10-11T15:22:10.489Z,29.68
2022-10-11T15:24:37.083Z,30.12
2022-10-11T15:27:03.444Z,29.87
2022-10-11T15:29:29.835Z,29.71
2022-10-11T15:31:56.247Z,29.69
2022-10-11T15:34:22.599Z,29.62
2022-10-11T15:36:49.032Z,29.67
2022-10-11T15:39:15.500Z,29.69
2022-10-11T15:41:41.906Z,29.66
2022-10-11T15:44:08.264Z,29.63
2022-10-11T15:46:34.709Z,29.71
2022-10-11T15:49:05.899Z,29.71
2022-10-11T15:51:33.072Z,29.67
2022-10-11T15:53:59.531Z,30.07
2022-10-11T15:56:28.313Z,29.86
2022-10-11T15:58:56.747Z,29.71
2022-10-11T16:01:23.305Z,29.66
2022-10-11T16:03:49.701Z,29.66
2022-10-11T16:06:16.139Z,29.64
2022-10-11T16:08:42.576Z,29.57
2022-10-11T16:11:08.992Z,29.61
2022-10-11T16:13:35.392Z,29.61
2022-10-11T16:16:01.871Z,29.62
2022-10-11T16:18:32.628Z,29.60
2022-10-11T16:21:01.376Z,29.54
2022-10-11T16:23:27.764Z,29.88
2022-10-11T16:25:54.172Z,29.81
2022-10-11T16:28:20.652Z,29.66
2022-10-11T16:30:47.038Z,29.73
2022-10-11T16:33:13.419Z,29.71
2022-10-11T16:35:39.809Z,29.69
2022-10-11T16:38:06.174Z,29.75
2022-10-11T16:40:35.155Z,29.78
2022-10-11T16:43:07.249Z,29.74
2022-10-11T16:45:34.163Z,29.73
2022-10-11T16:48:00.536Z,29.82
2022-10-11T16:50:26.971Z,29.81
2022-10-11T16:52:53.349Z,29.81
2022-10-11T16:55:20.001Z,30.30
2022-10-11T16:57:46.393Z,30.06
2022-10-11T17:00:12.760Z,29.93
2022-10-11T17:02:39.138Z,29.94
2022-10-11T17:05:05.554Z,29.97
2022-10-11T17:07:31.974Z,29.95
2022-10-11T17:09:58.375Z,29.86
2022-10-11T17:12:25.230Z,29.89
2022-10-11T17:14:51.580Z,29.85
2022-10-11T17:17:17.968Z,29.79
2022-10-11T17:19:45.490Z,29.78
2022-10-11T17:22:12.063Z,29.79
2022-10-11T17:24:38.446Z,29.84
2022-10-11T17:27:04.853Z,30.32
2022-10-11T17:29:38.357Z,30.13
2022-10-11T17:32:04.893Z,29.92
2022-10-11T17:34:31.273Z,29.88
2022-10-11T17:36:57.619Z,29.85
2022-10-11T17:39:24.037Z,29.83
2022-10-11T17:41:50.416Z,29.89
2022-10-11T17:44:16.815Z,29.92
2022-10-11T17:46:43.401Z,29.84
2022-10-11T17:49:09.769Z,29.85
2022-10-11T17:51:36.146Z,29.85
2022-10-11T17:54:02.632Z,29.83
2022-10-11T17:56:32.439Z,29.81
2022-10-11T17:59:01.547Z,30.45
2022-10-11T18:01:28.106Z,30.18
2022-10-11T18:03:54.563Z,29.97
2022-10-11T18:06:20.909Z,29.98
2022-10-11T18:08:47.291Z,30.01
2022-10-11T18:11:13.697Z,29.99
2022-10-11T18:13:40.084Z,30.06
2022-10-11T18:16:06.810Z,30.12
2022-10-11T18:18:33.429Z,30.17
2022-10-11T18:20:59.839Z,30.20
2022-10-11T18:23:26.217Z,30.23
2022-10-11T18:25:52.624Z,30.29
2022-10-11T18:28:19.056Z,30.50
2022-10-11T18:30:45.584Z,30.80
2022-10-11T18:33:11.985Z,30.40
2022-10-11T18:35:38.356Z,30.33
2022-10-11T18:38:04.742Z,30.30
2022-10-11T18:40:31.155Z,30.24
2022-10-11T18:42:57.542Z,30.24
2022-10-11T18:45:24.005Z,30.30
2022-10-11T18:47:50.499Z,30.27
2022-10-11T18:50:16.861Z,30.33
2022-10-11T18:52:44.640Z,30.33
2022-10-11T18:55:11.186Z,30.37
2022-10-11T18:57:37.565Z,30.40
2022-10-11T19:00:11.817Z,30.59
2022-10-11T19:02:50.371Z,30.79
2022-10-11T19:05:16.761Z,30.49
2022-10-11T19:07:43.166Z,30.47
2022-10-11T19:10:09.566Z,30.44
2022-10-11T19:12:35.956Z,30.46
2022-10-11T19:15:02.337Z,30.44
2022-10-11T19:17:28.744Z,30.44
2022-10-11T19:19:55.146Z,30.50
2022-10-11T19:22:21.530Z,30.48
2022-10-11T19:24:47.873Z,30.50
2022-10-11T19:27:14.344Z,30.50
2022-10-11T19:29:43.009Z,30.48
2022-10-11T19:32:09.371Z,30.41
2022-10-11T19:34:35.852Z,31.00
2022-10-11T19:37:02.194Z,30.72
2022-10-11T19:39:28.636Z,30.57
2022-10-11T19:41:55.067Z,30.51
2022-10-11T19:44:21.421Z,30.48
2022-10-11T19:46:52.326Z,30.51
2022-10-11T19:49:19.237Z,30.55
2022-10-11T19:51:45.587Z,30.55
2022-10-11T19:54:11.973Z,30.48
2022-10-11T19:56:38.418Z,30.58
2022-10-11T19:59:04.799Z,30.58
2022-10-11T20:01:31.247Z,30.52
2022-10-11T20:03:57.709Z,30.51
2022-10-11T20:06:24.157Z,30.50
2022-10-11T20:09:10.357Z,30.53
2022-10-11T20:11:36.967Z,31.04
2022-10-11T20:14:03.313Z,30.85
2022-10-11T20:16:29.658Z,30.59
2022-10-11T20:18:56.105Z,30.54
2022-10-11T20:21:22.452Z,30.56
2022-10-11T20:23:48.971Z,30.49
2022-10-11T20:26:15.428Z,30.49
2022-10-11T20:28:41.823Z,30.48
2022-10-11T20:31:08.230Z,30.48
2022-10-11T20:33:34.751Z,30.48
2022-10-11T20:36:01.088Z,30.44
2022-10-11T20:38:27.458Z,30.44
2022-10-11T20:40:53.824Z,30.50
2022-10-11T20:43:20.196Z,30.43
2022-10-11T20:45:46.545Z,30.44
2022-10-11T20:48:13.921Z,30.46
2022-10-11T20:50:40.358Z,31.10
2022-10-11T20:53:06.748Z,30.79
2022-10-11T20:55:33.151Z,30.55
2022-10-11T20:57:59.521Z,30.53
2022-10-11T21:00:25.868Z,30.48
2022-10-11T21:02:52.231Z,30.47
2022-10-11T21:05:18.607Z,30.49
2022-10-11T21:07:44.935Z,30.44
2022-10-11T21:10:11.318Z,30.45
2022-10-11T21:12:37.664Z,30.55
2022-10-11T21:15:04.014Z,30.56
2022-10-11T21:17:30.419Z,30.53
2022-10-11T21:19:58.996Z,30.47
2022-10-11T21:22:25.385Z,30.49
2022-10-11T21:24:51.781Z,30.52
2022-10-11T21:27:18.136Z,31.11
2022-10-11T21:29:44.519Z,30.76
2022-10-11T21:32:14.221Z,30.57
2022-10-11T21:34:40.912Z,30.57
2022-10-11T21:37:07.273Z,30.59
2022-10-11T21:39:33.762Z,30.60
2022-10-11T21:42:00.127Z,30.61
2022-10-11T21:44:26.492Z,30.60
2022-10-11T21:47:08.185Z,30.61
2022-10-11T21:49:34.893Z,30.62
2022-10-11T21:52:01.257Z,30.65
2022-10-11T21:54:27.637Z,30.64
2022-10-11T21:56:54.011Z,30.65
2022-10-11T21:59:20.388Z,30.64
2022-10-11T22:01:46.791Z,30.59
2022-10-11T22:04:13.229Z,31.03
2022-10-11T22:06:39.636Z,31.01
2022-10-11T22:09:06.003Z,30.69
2022-10-11T22:11:32.360Z,30.62
2022-10-11T22:13:58.864Z,30.59
2022-10-11T22:16:25.239Z,30.59
2022-10-11T22:18:51.620Z,30.61
2022-10-11T22:21:18.030Z,30.62
2022-10-11T22:23:44.382Z,30.54
2022-10-11T22:26:10.726Z,30.61
2022-10-11T22:28:37.250Z,30.63
2022-10-11T22:31:03.619Z,30.58
2022-10-11T22:33:29.961Z,30.56
2022-10-11T22:35:56.333Z,30.60
2022-10-11T22:38:22.709Z,30.58
2022-10-11T22:40:49.051Z,30.74
2022-10-11T22:43:15.507Z,31.35
2022-10-11T22:45:41.865Z,30.79
2022-10-11T22:48:08.218Z,30.69
2022-10-11T22:50:34.686Z,30.64
2022-10-11T22:53:01.035Z,30.63
2022-10-11T22:55:27.385Z,30.64
2022-10-11T22:57:53.780Z,30.59
2022-10-11T23:00:21.347Z,30.67
2022-10-11T23:02:47.702Z,30.64
2022-10-11T23:05:14.055Z,30.62
2022-10-11T23:07:40.416Z,30.57
2022-10-11T23:10:06.797Z,30.64
2022-10-11T23:12:33.253Z,30.62
2022-10-11T23:14:59.606Z,30.66
2022-10-11T23:17:25.954Z,30.57
2022-10-11T23:19:52.325Z,31.22
2022-10-11T23:22:19.066Z,30.88
2022-10-11T23:24:45.416Z,30.67
2022-10-11T23:27:11.792Z,30.65
2022-10-11T23:29:38.127Z,30.62
2022-10-11T23:32:04.498Z,30.63
2022-10-11T23:34:30.893Z,30.64
2022-10-11T23:36:57.271Z,30.65
2022-10-11T23:39:23.610Z,30.63
2022-10-11T23:41:50.166Z,30.69
2022-10-11T23:44:16.511Z,30.65
2022-10-11T23:46:43.009Z,30.62
2022-10-11T23:49:09.383Z,30.62
2022-10-11T23:51:35.771Z,30.60
2022-10-11T23:54:02.107Z,30.60
2022-10-11T23:56:28.492Z,31.02
2022-10-11T23:58:54.848Z,31.06
